Portada
METAR-TAF:

METAR-TAF

Aeroports :

Al-Kuwait, Kuwait

latitud: 29-13N, longitud: 047-59E, altitud: 55 m

Observació

L'informe es va fer fa 48 minuts, a les 19:00 UTC
Vent 8 kt del Oest
Temperatura 37°C
Humitat 15%
Pressió 997 hPa
Visibilitat: 7000 m
Cel clar

METAR: OKBK 181900Z 28008KT 7000 SKC 37/06 Q0997 NOSIG

Hora: 22:48 (19:48 UTC)

Pronòstic

L'informe es va fer fa 3 hores i 3 minuts, a les 16:45 UTC
Pronòstic vàlid del 18 a les 18 UTC al 19 a les 24 UTC
Vent 8 kt del Nord/Nord-Oest amb ràfegues de 18 kt
Visibilitat: 7000 m
Cel clar

TAF: OKBK 181645Z 1818/1924 34008G18KT 7000 SKC

Observacions i pronòstics meteorològics de més de 4000 aeroports (METAR i TAF).

Les estacions disponibles són els punts grocs i vermells al mapa.

Posi el ratolí al punt desitjat per veure el nom de l'estació.

Feu clic per veure les observacions i els pronòstics meteorològics.

Per canviar el mapa: feu clic els botons verds amb una creu de color negre per apropar; al botó verd amb un guió per allunyar la imatge; o en les fletxes verdes per a mapes adjacents.


METAR-TAF: